createdAt,value
2018-01-13T00:01:16.702Z,7.40
2018-01-13T00:03:42.643Z,7.40
2018-01-13T00:06:08.559Z,7.30
2018-01-13T00:08:34.474Z,7.30
2018-01-13T00:11:00.406Z,7.30
2018-01-13T00:13:26.395Z,7.20
2018-01-13T00:15:52.284Z,7.20
2018-01-13T00:18:18.192Z,7.10
2018-01-13T00:20:44.886Z,7.20
2018-01-13T00:23:10.817Z,7.20
2018-01-13T00:25:36.716Z,7.20
2018-01-13T00:28:02.651Z,7.20
2018-01-13T00:30:28.557Z,7.20
2018-01-13T00:32:54.480Z,7.10
2018-01-13T00:35:20.430Z,7.10
2018-01-13T00:37:46.348Z,7.10
2018-01-13T00:40:12.275Z,7.10
2018-01-13T00:42:38.266Z,7.10
2018-01-13T00:45:04.239Z,7.10
2018-01-13T00:47:30.210Z,7.10
2018-01-13T00:49:56.136Z,7.10
2018-01-13T00:52:22.049Z,7.00
2018-01-13T00:54:47.976Z,7.10
2018-01-13T00:57:13.872Z,7.00
2018-01-13T00:59:40.029Z,7.00
2018-01-13T01:02:05.938Z,7.00
2018-01-13T01:04:31.869Z,6.90
2018-01-13T01:06:57.810Z,6.90
2018-01-13T01:09:23.820Z,6.90
2018-01-13T01:11:50.545Z,6.80
2018-01-13T01:14:16.558Z,6.80
2018-01-13T01:16:42.897Z,6.80
2018-01-13T01:19:08.850Z,6.80
2018-01-13T01:21:34.778Z,6.60
2018-01-13T01:24:01.463Z,6.70
2018-01-13T01:26:27.391Z,6.70
2018-01-13T01:28:53.328Z,6.70
2018-01-13T01:31:19.279Z,6.70
2018-01-13T01:33:46.415Z,6.70
2018-01-13T01:36:13.270Z,6.70
2018-01-13T01:38:40.304Z,6.60
2018-01-13T01:41:06.241Z,6.60
2018-01-13T01:43:32.901Z,6.60
2018-01-13T01:45:58.824Z,6.60
2018-01-13T01:48:24.769Z,6.60
2018-01-13T01:50:50.709Z,6.60
2018-01-13T01:53:16.670Z,6.50
2018-01-13T01:55:42.603Z,6.50
2018-01-13T01:58:08.554Z,6.50
2018-01-13T02:00:34.626Z,6.60
2018-01-13T02:03:00.550Z,6.60
2018-01-13T02:05:26.471Z,6.50
2018-01-13T02:07:52.373Z,6.50
2018-01-13T02:10:19.198Z,6.40
2018-01-13T02:12:45.112Z,6.40
2018-01-13T02:15:11.074Z,6.40
2018-01-13T02:17:37.022Z,6.40
2018-01-13T02:20:02.998Z,6.40
2018-01-13T02:22:29.643Z,6.40
2018-01-13T02:24:55.639Z,6.40
2018-01-13T02:27:21.595Z,6.40
2018-01-13T02:29:47.491Z,6.30
2018-01-13T02:32:13.429Z,6.30
2018-01-13T02:34:39.358Z,6.30
2018-01-13T02:37:05.307Z,6.30
2018-01-13T02:39:31.238Z,6.30
2018-01-13T02:41:57.217Z,6.30
2018-01-13T02:44:23.153Z,6.20
2018-01-13T02:46:49.998Z,6.20
2018-01-13T02:49:16.649Z,6.20
2018-01-13T02:51:42.602Z,6.20
2018-01-13T02:54:08.521Z,6.10
2018-01-13T02:56:34.454Z,6.10
2018-01-13T02:59:01.115Z,6.10
2018-01-13T03:01:27.044Z,6.10
2018-01-13T03:03:52.953Z,6.10
2018-01-13T03:06:18.898Z,6.20
2018-01-13T03:08:44.806Z,6.20
2018-01-13T03:11:10.739Z,6.20
2018-01-13T03:13:36.670Z,6.10
2018-01-13T03:16:02.681Z,6.00
2018-01-13T03:18:28.590Z,6.10
2018-01-13T03:20:55.442Z,6.10
2018-01-13T03:23:21.396Z,6.10
2018-01-13T03:25:47.452Z,6.00
2018-01-13T03:28:14.114Z,6.00
2018-01-13T03:30:40.036Z,6.00
2018-01-13T03:33:05.956Z,6.00
2018-01-13T03:35:31.980Z,5.90
2018-01-13T03:37:57.899Z,5.90
2018-01-13T03:40:23.794Z,6.00
2018-01-13T03:42:50.458Z,6.00
2018-01-13T03:45:17.143Z,6.00
2018-01-13T03:47:43.069Z,5.90
2018-01-13T03:50:08.991Z,5.90
2018-01-13T03:52:34.928Z,5.90
2018-01-13T03:55:01.578Z,5.90
2018-01-13T03:57:27.720Z,5.80
2018-01-13T03:59:53.671Z,5.90
2018-01-13T04:02:19.649Z,5.90
2018-01-13T04:04:45.590Z,6.00
2018-01-13T04:07:11.513Z,6.00
2018-01-13T04:09:37.462Z,5.90
2018-01-13T04:12:03.400Z,6.00
2018-01-13T04:14:29.324Z,5.90
2018-01-13T04:16:55.242Z,5.90
2018-01-13T04:19:22.047Z,5.90
2018-01-13T04:21:47.962Z,5.90
2018-01-13T04:24:13.989Z,5.90
2018-01-13T04:26:40.646Z,5.90
2018-01-13T04:29:06.806Z,6.00
2018-01-13T04:31:32.809Z,6.00
2018-01-13T04:33:58.776Z,6.00
2018-01-13T04:36:24.723Z,6.00
2018-01-13T04:38:50.670Z,6.00
2018-01-13T04:41:16.588Z,6.00
2018-01-13T04:43:42.503Z,6.00
2018-01-13T04:46:08.434Z,6.00
2018-01-13T04:48:34.883Z,6.00
2018-01-13T04:51:01.581Z,5.90
2018-01-13T04:53:27.514Z,5.90
2018-01-13T04:55:53.431Z,5.90
2018-01-13T04:58:20.075Z,6.00
2018-01-13T05:00:46.002Z,6.00
2018-01-13T05:03:11.931Z,6.00
2018-01-13T05:05:37.826Z,6.00
2018-01-13T05:08:03.723Z,6.10
2018-01-13T05:10:29.738Z,6.10
2018-01-13T05:12:55.648Z,6.00
2018-01-13T05:15:21.610Z,6.00
2018-01-13T05:17:47.539Z,6.00
2018-01-13T05:20:13.473Z,6.00
2018-01-13T05:22:39.683Z,6.00
2018-01-13T05:25:05.615Z,6.10
2018-01-13T05:27:31.540Z,6.20
2018-01-13T05:29:57.492Z,6.10
2018-01-13T05:32:23.479Z,6.10
2018-01-13T05:34:49.408Z,6.10
2018-01-13T05:37:15.367Z,6.20
2018-01-13T05:39:41.349Z,6.10
2018-01-13T05:42:07.288Z,6.20
2018-01-13T05:44:33.226Z,6.20
2018-01-13T05:46:59.147Z,6.20
2018-01-13T05:49:25.116Z,6.20
2018-01-13T05:51:51.069Z,6.10
2018-01-13T05:54:17.738Z,5.80
2018-01-13T05:56:43.653Z,5.80
2018-01-13T05:59:09.726Z,5.80
2018-01-13T06:01:35.677Z,5.80
2018-01-13T06:04:02.430Z,5.80
2018-01-13T06:06:28.376Z,5.80
2018-01-13T06:08:54.326Z,6.00
2018-01-13T06:11:20.235Z,5.80
2018-01-13T06:13:46.156Z,5.80
2018-01-13T06:16:12.079Z,5.70
2018-01-13T06:18:38.114Z,5.70
2018-01-13T06:21:04.074Z,5.70
2018-01-13T06:23:29.998Z,5.80
2018-01-13T06:25:55.923Z,5.90
2018-01-13T06:28:21.884Z,5.90
2018-01-13T06:30:47.810Z,5.90
2018-01-13T06:33:13.741Z,5.80
2018-01-13T06:35:39.646Z,5.70
2018-01-13T06:38:05.558Z,5.60
2018-01-13T06:40:31.459Z,5.60
2018-01-13T06:42:58.136Z,5.60
2018-01-13T06:45:24.807Z,5.80
2018-01-13T06:47:50.728Z,5.80
2018-01-13T06:50:16.618Z,5.90
2018-01-13T06:52:42.536Z,5.90
2018-01-13T06:55:08.497Z,6.00
2018-01-13T06:57:34.480Z,6.10
2018-01-13T07:00:00.391Z,6.10
2018-01-13T07:02:26.334Z,6.10
2018-01-13T07:04:52.993Z,6.10
2018-01-13T07:07:18.916Z,6.10
2018-01-13T07:09:44.837Z,6.00
2018-01-13T07:12:10.781Z,5.90
2018-01-13T07:14:36.749Z,6.00
2018-01-13T07:17:02.652Z,5.80
2018-01-13T07:19:28.572Z,5.80
2018-01-13T07:21:54.518Z,5.90
2018-01-13T07:24:21.207Z,5.80
2018-01-13T07:26:47.138Z,5.70
2018-01-13T07:29:13.054Z,5.80
2018-01-13T07:31:38.958Z,5.80
2018-01-13T07:34:04.955Z,5.80
2018-01-13T07:36:30.854Z,5.80
2018-01-13T07:38:57.544Z,5.90
2018-01-13T07:41:23.484Z,5.80
2018-01-13T07:43:49.478Z,5.70
2018-01-13T07:46:15.395Z,5.80
2018-01-13T07:48:42.298Z,5.80
2018-01-13T07:51:08.969Z,5.70
2018-01-13T07:53:34.863Z,5.60
2018-01-13T07:56:01.852Z,5.70
2018-01-13T07:58:27.766Z,5.70
2018-01-13T08:00:53.711Z,5.70
2018-01-13T08:03:19.943Z,5.70
2018-01-13T08:05:45.946Z,5.70
2018-01-13T08:08:11.886Z,5.80
2018-01-13T08:10:37.819Z,5.80
2018-01-13T08:13:03.739Z,5.90
2018-01-13T08:15:29.681Z,5.90
2018-01-13T08:17:55.618Z,5.90
2018-01-13T08:20:21.538Z,5.90
2018-01-13T08:22:47.459Z,6.00
2018-01-13T08:25:14.071Z,6.10
2018-01-13T08:27:40.728Z,6.30
2018-01-13T08:30:06.710Z,6.30
2018-01-13T08:32:33.634Z,6.40
2018-01-13T08:35:00.196Z,6.40
2018-01-13T08:37:26.675Z,6.30
2018-01-13T08:39:52.596Z,6.40
2018-01-13T08:42:18.504Z,6.30
2018-01-13T08:44:44.475Z,6.20
2018-01-13T08:47:10.383Z,6.20
2018-01-13T08:49:36.302Z,6.20
2018-01-13T08:52:02.413Z,6.20
2018-01-13T08:54:28.416Z,6.20
2018-01-13T08:56:55.514Z,6.20
2018-01-13T08:59:21.611Z,6.20
2018-01-13T09:01:50.444Z,6.20
2018-01-13T09:04:17.468Z,6.30
2018-01-13T09:06:43.513Z,6.40
2018-01-13T09:09:09.437Z,6.50
2018-01-13T09:11:35.496Z,6.50
2018-01-13T09:14:01.455Z,6.60
2018-01-13T09:16:27.499Z,6.70
2018-01-13T09:18:53.558Z,6.70
2018-01-13T09:21:21.019Z,6.70
2018-01-13T09:23:47.869Z,6.70
2018-01-13T09:26:13.875Z,6.80
2018-01-13T09:28:39.874Z,6.80
2018-01-13T09:31:05.841Z,6.80
2018-01-13T09:33:31.877Z,6.90
2018-01-13T09:35:58.654Z,6.90
2018-01-13T09:38:25.279Z,6.90
2018-01-13T09:40:52.115Z,6.90
2018-01-13T09:43:22.150Z,6.80
2018-01-13T09:48:19.455Z,6.90
2018-01-13T09:50:45.406Z,6.80
2018-01-13T09:53:11.379Z,6.70
2018-01-13T09:55:38.145Z,6.70
2018-01-13T09:58:04.151Z,6.90
2018-01-13T10:00:30.382Z,6.70
2018-01-13T10:02:57.254Z,6.90
2018-01-13T10:05:23.328Z,6.90
2018-01-13T10:07:52.148Z,6.90
2018-01-13T10:10:19.979Z,7.00
2018-01-13T10:12:46.204Z,7.00
2018-01-13T10:15:15.595Z,7.00
2018-01-13T10:17:41.840Z,7.00
2018-01-13T10:20:07.775Z,7.00
2018-01-13T10:22:34.112Z,7.00
2018-01-13T10:25:00.153Z,7.00
2018-01-13T10:27:28.845Z,7.00
2018-01-13T10:29:54.787Z,6.90
2018-01-13T10:32:20.770Z,7.10
2018-01-13T10:34:47.321Z,6.90
2018-01-13T10:37:13.882Z,7.00
2018-01-13T10:39:40.110Z,6.90
2018-01-13T10:42:06.110Z,7.10
2018-01-13T10:44:33.100Z,7.10
2018-01-13T10:46:59.800Z,7.20
2018-01-13T10:49:26.629Z,7.20
2018-01-13T10:51:53.578Z,7.40
2018-01-13T10:54:19.622Z,7.30
2018-01-13T10:56:45.490Z,7.40
2018-01-13T10:59:11.415Z,7.40
2018-01-13T11:01:38.335Z,7.50
2018-01-13T11:04:04.342Z,7.50
2018-01-13T11:06:30.350Z,7.40
2018-01-13T11:08:58.069Z,7.30
2018-01-13T11:11:24.016Z,7.30
2018-01-13T11:13:50.758Z,7.30
2018-01-13T11:16:18.418Z,7.30
2018-01-13T11:18:45.096Z,7.40
2018-01-13T11:21:11.080Z,7.40
2018-01-13T11:23:37.014Z,7.40
2018-01-13T11:26:03.098Z,7.40
2018-01-13T11:28:29.110Z,7.40
2018-01-13T11:30:55.071Z,7.40
2018-01-13T11:33:21.937Z,7.30
2018-01-13T11:35:49.526Z,7.50
2018-01-13T11:38:15.622Z,7.40
2018-01-13T11:40:41.617Z,7.50
2018-01-13T11:43:08.354Z,7.40
2018-01-13T11:45:35.238Z,7.40
2018-01-13T11:48:01.188Z,7.40
2018-01-13T11:50:27.920Z,7.60
2018-01-13T11:52:53.847Z,7.50
2018-01-13T11:55:20.251Z,7.50
2018-01-13T11:57:47.220Z,7.50
2018-01-13T12:00:17.445Z,7.50
2018-01-13T12:02:47.076Z,7.50
2018-01-13T12:05:13.034Z,7.40
2018-01-13T12:07:39.666Z,7.30
2018-01-13T12:10:06.244Z,7.30
2018-01-13T12:12:32.237Z,7.10
2018-01-13T12:14:59.575Z,7.30
2018-01-13T12:17:25.534Z,7.30
2018-01-13T12:19:52.343Z,7.30
2018-01-13T12:22:19.285Z,7.40
2018-01-13T12:24:45.210Z,7.30
2018-01-13T12:27:12.662Z,7.30
2018-01-13T12:29:39.353Z,7.30
2018-01-13T12:32:05.444Z,7.10
2018-01-13T12:34:31.382Z,7.10
2018-01-13T12:36:57.367Z,7.00
2018-01-13T12:39:25.652Z,7.10
2018-01-13T12:41:53.202Z,7.30
2018-01-13T12:44:19.173Z,7.30
2018-01-13T12:46:45.144Z,7.30
2018-01-13T12:49:11.070Z,7.00
2018-01-13T12:51:39.766Z,7.10
2018-01-13T12:54:06.032Z,6.90
2018-01-13T12:56:32.951Z,6.90
2018-01-13T12:58:58.930Z,6.80
2018-01-13T13:01:24.825Z,6.80
2018-01-13T13:03:50.747Z,6.80
2018-01-13T13:06:18.504Z,6.70
2018-01-13T13:08:44.489Z,6.70
2018-01-13T13:11:10.937Z,6.80
2018-01-13T13:13:38.359Z,6.70
2018-01-13T13:16:04.420Z,6.70
2018-01-13T13:18:31.172Z,6.70
2018-01-13T13:20:57.126Z,6.70
2018-01-13T13:25:54.852Z,7.00
2018-01-13T13:28:20.814Z,7.00
2018-01-13T13:30:47.597Z,7.00
2018-01-13T13:33:16.031Z,7.00
2018-01-13T13:35:42.695Z,7.00
2018-01-13T13:38:11.218Z,7.10
2018-01-13T13:40:37.158Z,7.10
2018-01-13T13:43:04.139Z,7.10
2018-01-13T13:45:30.613Z,7.20
2018-01-13T13:47:57.191Z,7.20
2018-01-13T13:50:23.197Z,7.30
2018-01-13T13:52:49.887Z,7.30
2018-01-13T13:55:16.531Z,7.40
2018-01-13T13:57:43.470Z,7.30
2018-01-13T14:00:10.742Z,7.40
2018-01-13T14:02:37.542Z,7.40
2018-01-13T14:05:03.909Z,7.40
2018-01-13T14:07:30.902Z,7.20
2018-01-13T14:10:01.148Z,7.10
2018-01-13T14:12:24.970Z,7.20
2018-01-13T14:14:51.435Z,7.10
2018-01-13T14:17:17.401Z,7.30
2018-01-13T14:19:44.769Z,7.40
2018-01-13T14:22:11.538Z,7.40
2018-01-13T14:24:38.130Z,7.40
2018-01-13T14:27:04.379Z,7.50
2018-01-13T14:29:32.863Z,7.40
2018-01-13T14:32:01.754Z,7.50
2018-01-13T14:34:30.802Z,7.50
2018-01-13T14:36:56.754Z,7.40
2018-01-13T14:39:23.269Z,7.40
2018-01-13T14:41:49.918Z,7.40
2018-01-13T14:44:16.078Z,7.30
2018-01-13T14:46:43.557Z,7.20
2018-01-13T14:49:10.022Z,7.20
2018-01-13T14:54:07.330Z,7.30
2018-01-13T14:56:34.902Z,7.20
2018-01-13T14:59:04.709Z,7.20
2018-01-13T15:01:30.702Z,7.20
2018-01-13T15:03:57.371Z,7.20
2018-01-13T15:06:25.352Z,7.30
2018-01-13T15:08:52.838Z,7.20
2018-01-13T15:11:22.570Z,7.30
2018-01-13T15:13:48.563Z,7.30
2018-01-13T15:16:14.493Z,7.40
2018-01-13T15:18:40.425Z,7.40
2018-01-13T15:21:06.691Z,7.50
2018-01-13T15:23:32.737Z,7.40
2018-01-13T15:25:59.254Z,7.40
2018-01-13T15:28:25.826Z,7.30
2018-01-13T15:30:52.509Z,7.30
2018-01-13T15:33:20.111Z,7.30
2018-01-13T15:35:46.749Z,7.30
2018-01-13T15:38:12.974Z,7.30
2018-01-13T15:40:41.755Z,7.20
2018-01-13T15:43:07.906Z,7.20
2018-01-13T15:45:34.771Z,7.20
2018-01-13T15:48:04.957Z,7.20
2018-01-13T15:50:30.897Z,7.20
2018-01-13T15:52:56.827Z,7.20
2018-01-13T15:55:25.167Z,7.10
2018-01-13T15:57:51.523Z,7.10
2018-01-13T16:00:19.876Z,7.10
2018-01-13T16:02:46.558Z,7.10
2018-01-13T16:05:13.466Z,7.00
2018-01-13T16:07:39.429Z,7.00
2018-01-13T16:10:05.964Z,6.90
2018-01-13T16:12:34.707Z,6.90
2018-01-13T16:15:00.907Z,7.00
2018-01-13T16:17:29.246Z,6.80
2018-01-13T16:19:57.067Z,6.90
2018-01-13T16:22:25.107Z,7.00
2018-01-13T16:24:52.057Z,6.90
2018-01-13T16:27:18.838Z,7.00
2018-01-13T16:29:44.797Z,6.90
2018-01-13T16:32:10.873Z,6.90
2018-01-13T16:34:37.568Z,6.90
2018-01-13T16:37:05.068Z,6.90
2018-01-13T16:39:31.994Z,6.90
2018-01-13T16:41:58.254Z,6.90
2018-01-13T16:44:26.901Z,7.60
2018-01-13T16:46:52.887Z,7.90
2018-01-13T16:49:19.247Z,7.60
2018-01-13T16:51:46.218Z,7.50
2018-01-13T16:54:12.759Z,7.20
2018-01-13T16:56:39.033Z,7.10
2018-01-13T16:59:06.051Z,7.10
2018-01-13T17:01:33.163Z,7.00
2018-01-13T17:04:02.582Z,7.00
2018-01-13T17:06:29.714Z,7.00
2018-01-13T17:08:57.278Z,6.90
2018-01-13T17:11:23.274Z,6.80
2018-01-13T17:13:49.304Z,6.80
2018-01-13T17:16:15.306Z,6.70
2018-01-13T17:18:41.524Z,6.70
2018-01-13T17:21:07.543Z,6.60
2018-01-13T17:23:34.574Z,6.70
2018-01-13T17:26:00.967Z,6.70
2018-01-13T17:28:27.947Z,6.70
2018-01-13T17:33:30.798Z,6.70
2018-01-13T17:35:57.831Z,6.70
2018-01-13T17:38:26.098Z,6.80
2018-01-13T17:40:52.620Z,6.70
2018-01-13T17:43:18.583Z,6.60
2018-01-13T17:50:55.023Z,6.60
2018-01-13T17:55:53.386Z,6.60
2018-01-13T17:58:22.276Z,6.60
2018-01-13T18:05:52.401Z,6.40
2018-01-13T18:08:19.021Z,6.40
2018-01-13T18:13:18.587Z,6.40
2018-01-13T18:15:44.761Z,6.40
2018-01-13T18:18:12.489Z,6.40
2018-01-13T18:23:12.416Z,6.50
2018-01-13T18:25:40.883Z,6.50
2018-01-13T18:28:08.731Z,6.30
2018-01-13T18:30:36.229Z,6.50
2018-01-13T18:33:07.582Z,6.40
2018-01-13T18:35:34.379Z,6.50
2018-01-13T18:38:03.591Z,6.50
2018-01-13T18:40:31.885Z,6.50
2018-01-13T18:42:58.773Z,6.50
2018-01-13T18:45:24.911Z,6.50
2018-01-13T18:47:55.220Z,6.40
2018-01-13T18:52:57.998Z,6.40
2018-01-13T18:55:25.524Z,6.30
2018-01-13T19:00:25.231Z,6.50
2018-01-13T19:02:52.796Z,6.50
2018-01-13T19:05:25.018Z,6.40
2018-01-13T19:07:52.328Z,6.30
2018-01-13T19:10:20.493Z,6.30
2018-01-13T19:12:47.548Z,6.30
2018-01-13T19:15:13.618Z,6.40
2018-01-13T19:17:40.621Z,6.40
2018-01-13T19:20:08.599Z,6.40
2018-01-13T19:22:37.168Z,6.40
2018-01-13T19:25:06.557Z,6.40
2018-01-13T19:27:35.259Z,6.30
2018-01-13T19:30:03.895Z,6.30
2018-01-13T19:32:31.212Z,6.20
2018-01-13T19:34:57.828Z,6.10
2018-01-13T19:37:27.553Z,6.20
2018-01-13T19:39:57.147Z,6.10
2018-01-13T19:42:24.039Z,6.20
2018-01-13T19:44:50.124Z,6.20
2018-01-13T19:47:17.053Z,6.20
2018-01-13T19:49:44.926Z,6.20
2018-01-13T19:52:11.827Z,6.30
2018-01-13T19:54:37.927Z,6.40
2018-01-13T19:57:05.124Z,6.20
2018-01-13T19:59:31.519Z,6.20
2018-01-13T20:02:02.120Z,6.20
2018-01-13T20:04:28.979Z,6.10
2018-01-13T20:06:56.657Z,6.10
2018-01-13T20:09:22.723Z,6.10
2018-01-13T20:11:51.418Z,6.10
2018-01-13T20:14:17.478Z,6.00
2018-01-13T20:16:43.788Z,6.20
2018-01-13T20:19:12.157Z,6.20
2018-01-13T20:21:38.233Z,6.10
2018-01-13T20:26:36.496Z,6.10
2018-01-13T20:29:02.745Z,6.10
2018-01-13T20:31:29.360Z,6.10
2018-01-13T20:33:55.875Z,6.10
2018-01-13T20:38:53.276Z,6.00
2018-01-13T20:43:52.839Z,6.10
2018-01-13T20:46:19.597Z,6.10
2018-01-13T20:48:45.628Z,6.00
2018-01-13T20:51:12.501Z,6.10
2018-01-13T20:53:39.599Z,6.10
2018-01-13T20:56:05.911Z,6.10
2018-01-13T20:58:32.486Z,6.20
2018-01-13T21:01:00.072Z,6.20
2018-01-13T21:03:27.595Z,6.10
2018-01-13T21:05:56.714Z,6.00
2018-01-13T21:08:23.106Z,6.00
2018-01-13T21:10:50.800Z,6.20
2018-01-13T21:13:18.948Z,6.10
2018-01-13T21:15:45.283Z,6.00
2018-01-13T21:18:12.218Z,5.90
2018-01-13T21:23:09.179Z,5.90
2018-01-13T21:25:36.469Z,6.00
2018-01-13T21:28:05.358Z,6.00
2018-01-13T21:30:33.986Z,6.00
2018-01-13T21:35:32.209Z,6.00
2018-01-13T21:38:00.144Z,6.00
2018-01-13T21:40:27.120Z,5.90
2018-01-13T21:42:53.354Z,6.10
2018-01-13T21:50:26.251Z,5.90
2018-01-13T21:52:52.742Z,6.00
2018-01-13T21:55:20.157Z,5.90
2018-01-13T21:57:48.616Z,5.90
2018-01-13T22:00:14.710Z,5.90
2018-01-13T22:02:40.966Z,5.90
2018-01-13T22:05:09.395Z,5.90
2018-01-13T22:07:36.952Z,5.80
2018-01-13T22:10:05.881Z,5.90
2018-01-13T22:12:32.681Z,6.00
2018-01-13T22:15:00.863Z,5.90
2018-01-13T22:17:29.576Z,5.90
2018-01-13T22:19:58.444Z,5.90
2018-01-13T22:22:30.383Z,6.00
2018-01-13T22:24:57.616Z,5.90
2018-01-13T22:29:55.854Z,6.00
2018-01-13T22:32:22.052Z,5.90
2018-01-13T22:34:50.083Z,6.00
2018-01-13T22:37:18.732Z,6.10
2018-01-13T22:39:45.154Z,5.90
2018-01-13T22:42:13.648Z,5.80
2018-01-13T22:44:40.351Z,5.80
2018-01-13T22:47:06.802Z,5.90
2018-01-13T22:49:32.991Z,5.80
2018-01-13T22:52:01.128Z,5.80
2018-01-13T22:54:27.221Z,5.70
2018-01-13T22:56:54.202Z,5.90
2018-01-13T22:59:20.167Z,5.80
2018-01-13T23:01:47.005Z,5.80
2018-01-13T23:04:17.094Z,5.70
2018-01-13T23:06:43.269Z,5.70
2018-01-13T23:09:09.458Z,5.80
2018-01-13T23:11:35.466Z,5.90
2018-01-13T23:14:01.442Z,5.70
2018-01-13T23:16:28.135Z,5.70
2018-01-13T23:18:55.135Z,5.70
2018-01-13T23:21:22.455Z,5.80
2018-01-13T23:23:48.406Z,5.70
2018-01-13T23:26:14.368Z,5.70
2018-01-13T23:28:41.343Z,5.80
2018-01-13T23:31:08.032Z,5.80
2018-01-13T23:33:33.987Z,5.80
2018-01-13T23:35:59.976Z,5.70
2018-01-13T23:38:26.997Z,5.70
2018-01-13T23:40:52.922Z,5.80
2018-01-13T23:43:19.072Z,5.80
2018-01-13T23:45:45.316Z,5.80
2018-01-13T23:48:11.196Z,5.70
2018-01-13T23:50:37.126Z,5.70
2018-01-13T23:53:04.779Z,5.60
2018-01-13T23:55:30.889Z,5.70
2018-01-13T23:57:56.821Z,5.70
